Time;durP1;ratioP1;P1;durP2;ratioP2;P2;SDS_P1;SDS_P2;PMS_P1;PMS_P2;Temp;Humidity;BMP_temperature;BMP_pressure;BME280_temperature;BME280_humidity;BME280_pressure;Samples;Min_cycle;Max_cycle;Signal;HPM_P1;HPM_P2
2022/08/13 00:01:51;;;;;;;3.08;1.48;;;19.10;85.20;;;;;;5094387;28;20040;-75
2022/08/13 00:04:17;;;;;;;1.83;1.00;;;19.00;85.20;;;;;;5086131;28;20115;-75
2022/08/13 00:09:12;;;;;;;2.03;1.27;;;19.00;85.70;;;;;;5103532;28;20524;-74
2022/08/13 00:14:31;;;;;;;2.92;1.20;;;18.90;86.50;;;;;;5076785;28;20083;-75
2022/08/13 00:16:57;;;;;;;1.75;1.02;;;19.00;86.90;;;;;;5100479;28;20032;-75
2022/08/13 00:19:26;;;;;;;1.95;1.20;;;18.90;87.00;;;;;;5101509;28;20123;-75
2022/08/13 00:21:59;;;;;;;1.58;0.98;;;18.80;87.30;;;;;;5098690;28;20051;-75
2022/08/13 00:24:26;;;;;;;1.92;1.10;;;18.80;87.70;;;;;;5101249;28;20512;-74
2022/08/13 00:26:52;;;;;;;4.15;1.20;;;18.80;88.10;;;;;;5099957;28;20703;-75
2022/08/13 00:29:18;;;;;;;2.63;1.30;;;18.70;88.40;;;;;;5091640;28;20221;-75
2022/08/13 00:31:46;;;;;;;1.83;1.00;;;18.70;88.60;;;;;;5065155;28;20036;-75
2022/08/13 00:34:12;;;;;;;2.10;1.30;;;18.60;88.80;;;;;;5083363;28;20032;-75
2022/08/13 00:36:37;;;;;;;1.65;1.05;;;18.60;89.10;;;;;;5101245;28;20383;-75
2022/08/13 00:39:06;;;;;;;1.92;1.13;;;18.60;89.40;;;;;;5082306;28;20044;-75
2022/08/13 00:41:37;;;;;;;2.92;1.52;;;18.50;89.60;;;;;;5106852;28;20039;-75
2022/08/13 00:44:08;;;;;;;2.63;1.25;;;18.50;89.80;;;;;;5106420;28;20428;-75
2022/08/13 00:46:35;;;;;;;2.60;1.20;;;18.50;90.20;;;;;;5094609;28;20078;-75
2022/08/13 00:49:03;;;;;;;2.15;1.20;;;18.50;90.00;;;;;;5095094;28;20079;-75
2022/08/13 00:51:30;;;;;;;2.13;1.20;;;18.50;90.00;;;;;;5099184;28;20072;-75
2022/08/13 00:53:58;;;;;;;1.85;1.00;;;18.50;90.10;;;;;;5068469;28;20036;-75
2022/08/13 00:56:24;;;;;;;3.70;1.33;;;18.40;90.20;;;;;;5105349;28;20043;-74
2022/08/13 00:58:51;;;;;;;2.03;1.13;;;18.40;90.40;;;;;;5096355;28;20028;-75
2022/08/13 01:01:18;;;;;;;2.30;1.30;;;18.40;90.60;;;;;;5107951;28;20401;-75
2022/08/13 01:03:43;;;;;;;3.85;1.38;;;18.30;90.70;;;;;;5106488;28;20040;-75
2022/08/13 01:06:10;;;;;;;2.47;1.10;;;18.30;90.80;;;;;;5088505;28;20085;-75
2022/08/13 01:08:40;;;;;;;2.00;1.10;;;18.30;90.90;;;;;;5103926;28;20039;-75
2022/08/13 01:11:09;;;;;;;2.30;1.42;;;18.20;91.10;;;;;;5085878;28;20036;-75
2022/08/13 01:13:37;;;;;;;1.85;1.05;;;18.20;91.30;;;;;;5094906;28;20024;-74
2022/08/13 01:16:13;;;;;;;3.33;1.52;;;18.20;91.30;;;;;;5106893;27;20097;-75
2022/08/13 01:18:42;;;;;;;2.60;1.40;;;18.10;91.60;;;;;;5104864;28;20434;-75
2022/08/13 01:21:14;;;;;;;2.70;1.50;;;18.10;91.50;;;;;;5084946;28;20060;-75
2022/08/13 01:23:43;;;;;;;2.45;1.48;;;18.10;91.70;;;;;;5098859;28;20035;-75
2022/08/13 01:26:10;;;;;;;1.85;1.20;;;18.00;91.50;;;;;;5103260;28;20392;-75
2022/08/13 01:28:38;;;;;;;2.30;1.27;;;18.00;91.60;;;;;;5105577;28;20085;-75
2022/08/13 01:31:05;;;;;;;2.38;1.20;;;18.00;91.70;;;;;;5092389;28;20079;-75
2022/08/13 01:33:30;;;;;;;2.75;1.33;;;18.00;91.70;;;;;;5106148;28;20032;-75
2022/08/13 01:35:58;;;;;;;4.03;1.48;;;18.00;91.70;;;;;;5107142;28;20545;-75
2022/08/13 01:38:26;;;;;;;2.83;1.45;;;18.00;91.70;;;;;;5085436;28;20517;-75
2022/08/13 01:40:52;;;;;;;2.70;1.73;;;18.00;91.70;;;;;;5073161;28;20031;-75
2022/08/13 01:43:18;;;;;;;3.08;1.20;;;18.00;91.70;;;;;;5105474;28;20032;-75
2022/08/13 01:45:44;;;;;;;2.33;1.50;;;18.00;91.80;;;;;;5087032;28;20048;-75
2022/08/13 01:50:54;;;;;;;2.15;1.38;;;17.90;91.90;;;;;;5106328;28;20035;-75
2022/08/13 01:53:20;;;;;;;1.95;1.10;;;17.90;92.00;;;;;;5102705;28;20496;-75
2022/08/13 01:55:48;;;;;;;2.05;1.23;;;17.90;92.20;;;;;;5085295;28;20152;-75
2022/08/13 01:58:19;;;;;;;5.60;1.63;;;17.90;92.20;;;;;;5085152;28;20343;-75
2022/08/13 02:00:47;;;;;;;1.90;1.00;;;17.90;92.20;;;;;;5086916;28;20100;-75
2022/08/13 02:03:16;;;;;;;2.22;1.08;;;17.90;92.20;;;;;;5098294;28;20509;-75
2022/08/13 02:05:42;;;;;;;2.28;1.42;;;17.80;92.20;;;;;;5089781;28;20047;-75
2022/08/13 02:08:12;;;;;;;2.58;1.40;;;17.80;92.20;;;;;;5081370;28;20067;-75
2022/08/13 02:10:40;;;;;;;2.50;1.50;;;17.90;92.40;;;;;;5071514;28;20119;-75
2022/08/13 02:13:14;;;;;;;2.47;1.48;;;17.80;92.30;;;;;;5081936;28;20048;-75
2022/08/13 02:15:41;;;;;;;1.83;1.10;;;17.80;92.50;;;;;;5108995;28;20151;-75
2022/08/13 02:18:17;;;;;;;2.72;1.60;;;17.80;92.50;;;;;;5094223;28;20046;-75
2022/08/13 02:20:45;;;;;;;2.72;1.48;;;17.70;92.70;;;;;;5061969;28;1204264;-75
2022/08/13 02:23:16;;;;;;;2.58;1.48;;;17.70;92.70;;;;;;5102052;28;20489;-75
2022/08/13 02:25:45;;;;;;;2.65;1.55;;;17.60;92.90;;;;;;5081049;28;20044;-74
2022/08/13 02:28:14;;;;;;;2.95;1.52;;;17.50;93.00;;;;;;5093265;28;20039;-74
2022/08/13 02:30:40;;;;;;;3.70;1.90;;;17.40;93.10;;;;;;5090197;28;20055;-74
2022/08/13 02:33:06;;;;;;;3.55;1.75;;;17.50;93.20;;;;;;5086300;28;20481;-75
2022/08/13 02:35:35;;;;;;;4.50;2.10;;;17.50;93.20;;;;;;5106214;28;20035;-74
2022/08/13 02:38:01;;;;;;;2.47;1.40;;;17.50;93.20;;;;;;5106177;28;20058;-74
2022/08/13 02:43:12;;;;;;;2.67;1.35;;;17.50;93.30;;;;;;5101249;28;20095;-74
2022/08/13 02:45:39;;;;;;;3.05;1.67;;;17.40;93.40;;;;;;5105122;28;20457;-75
2022/08/13 02:48:08;;;;;;;2.33;1.30;;;17.40;93.40;;;;;;5089344;28;20447;-75
2022/08/13 02:50:42;;;;;;;2.53;1.60;;;17.40;93.50;;;;;;5107216;28;20039;-74
2022/08/13 02:53:08;;;;;;;3.72;1.73;;;17.40;93.50;;;;;;5108577;28;20415;-74
2022/08/13 02:55:34;;;;;;;4.70;2.20;;;17.40;93.50;;;;;;5093775;28;20089;-74
2022/08/13 02:58:00;;;;;;;3.00;1.60;;;17.40;93.60;;;;;;5086752;28;20028;-74
2022/08/13 03:00:25;;;;;;;2.78;1.98;;;17.40;93.70;;;;;;5087316;28;20032;-75
2022/08/13 03:02:53;;;;;;;4.30;1.90;;;17.20;93.80;;;;;;5107994;28;20276;-74
2022/08/13 03:05:19;;;;;;;2.67;1.65;;;17.30;93.90;;;;;;5097482;28;20041;-74
2022/08/13 03:07:47;;;;;;;1.88;1.27;;;17.20;93.90;;;;;;5085827;28;20031;-74
2022/08/13 03:10:15;;;;;;;2.63;1.60;;;17.30;94.00;;;;;;5099505;28;20032;-74
2022/08/13 03:12:48;;;;;;;6.00;1.88;;;17.20;93.90;;;;;;5097397;28;20072;-75
2022/08/13 03:15:15;;;;;;;2.38;1.45;;;17.20;94.10;;;;;;5087590;28;20052;-74
2022/08/13 03:17:43;;;;;;;3.03;1.77;;;17.10;94.10;;;;;;5100963;28;20074;-74
2022/08/13 03:20:15;;;;;;;4.35;1.90;;;17.20;94.40;;;;;;5092152;28;20512;-74
2022/08/13 03:22:56;;;;;;;3.50;1.73;;;17.10;94.10;;;;;;5105841;28;20501;-74
2022/08/13 03:25:25;;;;;;;4.45;2.03;;;17.10;94.60;;;;;;5079758;28;20497;-74
2022/08/13 03:27:53;;;;;;;3.35;1.88;;;17.10;94.10;;;;;;5087783;28;20039;-74
2022/08/13 03:30:21;;;;;;;4.07;1.83;;;17.10;93.90;;;;;;5087942;28;20040;-74
2022/08/13 03:32:48;;;;;;;3.35;1.60;;;17.10;94.00;;;;;;5103238;28;20084;-74
2022/08/13 03:35:23;;;;;;;6.15;2.03;;;17.10;94.00;;;;;;5090388;28;20043;-74
2022/08/13 03:37:54;;;;;;;2.28;1.30;;;17.10;94.30;;;;;;5097447;28;20047;-74
2022/08/13 03:40:22;;;;;;;2.65;1.52;;;17.00;94.20;;;;;;5101849;28;20036;-74
2022/08/13 03:42:48;;;;;;;2.42;1.55;;;17.10;94.10;;;;;;5097380;28;20115;-74
2022/08/13 03:45:15;;;;;;;3.00;1.75;;;17.00;94.00;;;;;;5099387;28;20028;-74
2022/08/13 03:47:42;;;;;;;3.78;1.75;;;17.00;94.00;;;;;;5104967;28;20078;-75
2022/08/13 03:50:10;;;;;;;2.97;1.90;;;16.90;94.00;;;;;;5085764;28;20131;-74
2022/08/13 03:52:36;;;;;;;3.90;1.70;;;16.90;94.10;;;;;;5086051;28;20044;-74
2022/08/13 03:55:09;;;;;;;2.33;1.75;;;16.90;94.10;;;;;;5101913;28;20517;-74
2022/08/13 03:57:44;;;;;;;3.85;1.83;;;16.90;94.20;;;;;;5092744;28;20309;-74
2022/08/13 04:00:12;;;;;;;3.15;1.98;;;16.80;94.60;;;;;;5101279;28;20031;-74
2022/08/13 04:02:41;;;;;;;3.00;1.90;;;16.80;94.40;;;;;;5086185;28;20063;-74
2022/08/13 04:05:17;;;;;;;2.78;1.67;;;16.80;94.30;;;;;;5097403;28;20051;-74
2022/08/13 04:07:46;;;;;;;3.90;2.15;;;16.80;94.40;;;;;;5089475;28;20039;-74
2022/08/13 04:10:12;;;;;;;2.83;1.73;;;16.80;94.40;;;;;;5103174;28;20048;-74
2022/08/13 04:12:38;;;;;;;3.17;1.92;;;16.80;94.30;;;;;;5094564;28;20062;-74
2022/08/13 04:15:06;;;;;;;3.75;2.20;;;16.80;94.20;;;;;;5085653;28;20048;-74
2022/08/13 04:17:35;;;;;;;3.70;2.17;;;16.80;94.20;;;;;;5083688;28;20497;-74
2022/08/13 04:20:02;;;;;;;3.80;2.08;;;16.80;94.20;;;;;;5099607;28;20044;-74
2022/08/13 04:22:28;;;;;;;4.38;2.15;;;16.80;94.20;;;;;;5097603;28;20489;-74
2022/08/13 04:24:54;;;;;;;2.85;1.90;;;16.80;94.10;;;;;;5101023;28;20051;-74
2022/08/13 04:27:20;;;;;;;3.40;1.80;;;16.80;94.10;;;;;;5086018;28;20094;-74
2022/08/13 04:29:45;;;;;;;3.58;2.10;;;16.80;94.20;;;;;;5093519;28;20043;-74
2022/08/13 04:32:11;;;;;;;3.13;1.80;;;16.80;94.20;;;;;;5099484;28;20503;-74
2022/08/13 04:34:36;;;;;;;3.15;1.67;;;16.80;94.30;;;;;;5094841;28;20043;-74
2022/08/13 04:37:03;;;;;;;3.03;2.03;;;16.70;94.30;;;;;;5088403;28;20036;-74
2022/08/13 04:39:29;;;;;;;3.30;1.77;;;16.70;94.40;;;;;;5085645;28;20032;-74
2022/08/13 04:41:54;;;;;;;3.45;1.73;;;16.70;94.40;;;;;;5092900;28;20032;-74
2022/08/13 04:44:20;;;;;;;2.80;1.90;;;16.70;94.50;;;;;;5084240;28;20043;-74
2022/08/13 04:46:46;;;;;;;2.65;1.45;;;16.70;94.40;;;;;;5084381;28;20125;-74
2022/08/13 04:49:12;;;;;;;3.40;2.10;;;16.70;94.50;;;;;;5104079;28;20043;-74
2022/08/13 04:51:39;;;;;;;2.72;1.80;;;16.70;94.50;;;;;;5103640;28;20433;-74
2022/08/13 04:54:05;;;;;;;2.63;1.85;;;16.70;94.60;;;;;;5084754;28;20417;-74
2022/08/13 04:56:31;;;;;;;5.15;2.42;;;16.60;94.60;;;;;;5074485;28;20031;-74
2022/08/13 04:58:57;;;;;;;3.10;1.88;;;16.60;94.70;;;;;;5078802;28;20046;-74
2022/08/13 05:01:22;;;;;;;3.45;2.10;;;16.70;94.80;;;;;;5087236;28;20047;-74
2022/08/13 05:03:48;;;;;;;5.20;2.33;;;16.70;94.70;;;;;;5101069;28;20031;-74
2022/08/13 05:06:24;;;;;;;3.38;2.17;;;16.70;94.70;;;;;;5084282;28;20040;-74
2022/08/13 05:08:50;;;;;;;5.10;2.42;;;16.80;94.60;;;;;;5102469;28;20119;-74
2022/08/13 05:11:18;;;;;;;3.67;2.45;;;16.80;94.50;;;;;;5102705;28;20040;-74
2022/08/13 05:13:45;;;;;;;4.07;1.83;;;16.90;94.30;;;;;;5103014;28;20769;-74
2022/08/13 05:16:14;;;;;;;5.20;2.42;;;17.00;94.20;;;;;;5106149;28;20512;-74
2022/08/13 05:18:44;;;;;;;3.50;2.05;;;17.00;94.10;;;;;;5095686;28;20040;-74
2022/08/13 05:21:10;;;;;;;3.20;1.88;;;16.90;93.90;;;;;;5094327;28;20144;-74
2022/08/13 05:23:39;;;;;;;3.60;1.88;;;17.10;93.80;;;;;;5104543;28;20489;-74
2022/08/13 05:26:06;;;;;;;4.32;2.17;;;17.10;93.80;;;;;;5097397;28;20519;-74
2022/08/13 05:28:33;;;;;;;5.55;2.03;;;17.10;93.60;;;;;;5106113;28;20049;-74
2022/08/13 05:30:59;;;;;;;3.80;2.42;;;17.10;93.60;;;;;;5106875;28;20055;-74
2022/08/13 05:33:28;;;;;;;2.97;1.75;;;17.10;93.60;;;;;;5099348;28;20604;-74
2022/08/13 05:36:00;;;;;;;3.33;2.00;;;17.20;93.70;;;;;;5093457;28;20111;-74
2022/08/13 05:38:27;;;;;;;3.90;2.45;;;17.20;93.60;;;;;;5088031;28;20583;-74
2022/08/13 05:40:56;;;;;;;2.53;1.98;;;17.20;93.70;;;;;;5103733;28;20126;-74
2022/08/13 05:43:24;;;;;;;3.20;2.13;;;17.40;93.80;;;;;;5104002;28;20050;-74
2022/08/13 05:46:02;;;;;;;2.78;1.70;;;17.70;93.40;;;;;;5074504;28;20126;-74
2022/08/13 05:48:43;;;;;;;3.65;2.28;;;17.80;93.40;;;;;;5103613;28;20166;-75
2022/08/13 05:51:12;;;;;;;3.55;2.05;;;17.80;93.30;;;;;;5100091;28;20055;-74
2022/08/13 05:53:38;;;;;;;3.85;2.25;;;17.70;93.00;;;;;;5101090;28;20048;-74
2022/08/13 05:56:05;;;;;;;3.17;1.85;;;17.70;93.00;;;;;;5105603;28;20050;-74
2022/08/13 05:58:31;;;;;;;4.90;2.22;;;17.70;93.20;;;;;;5106195;28;20039;-74
2022/08/13 06:03:42;;;;;;;3.00;1.95;;;17.70;93.10;;;;;;5092290;28;20758;-75
2022/08/13 06:06:10;;;;;;;4.63;2.05;;;17.70;93.00;;;;;;5087193;28;20505;-76
2022/08/13 06:08:38;;;;;;;3.55;1.80;;;17.80;92.80;;;;;;5104180;28;20273;-75
2022/08/13 06:11:11;;;;;;;3.28;1.75;;;17.80;92.70;;;;;;5087554;28;20463;-74
2022/08/13 06:13:41;;;;;;;3.95;1.98;;;17.80;92.50;;;;;;5087436;28;20128;-74
2022/08/13 06:16:12;;;;;;;3.72;1.85;;;17.90;92.40;;;;;;5100455;28;20448;-75
2022/08/13 06:18:40;;;;;;;4.20;1.90;;;17.90;92.40;;;;;;5074693;28;20050;-75
2022/08/13 06:21:11;;;;;;;3.30;1.73;;;17.90;92.30;;;;;;5098663;28;20047;-74
2022/08/13 06:23:38;;;;;;;2.60;1.80;;;18.00;92.20;;;;;;5098009;28;20951;-75
2022/08/13 06:26:05;;;;;;;3.42;1.95;;;18.00;92.30;;;;;;5090997;28;20047;-75
2022/08/13 06:28:32;;;;;;;2.92;1.42;;;18.00;92.30;;;;;;5095124;28;20044;-74
2022/08/13 06:31:00;;;;;;;3.20;1.92;;;18.10;92.40;;;;;;5106152;28;20068;-75
2022/08/13 06:33:27;;;;;;;2.70;1.70;;;18.20;92.60;;;;;;5094476;28;20035;-74
2022/08/13 06:35:55;;;;;;;2.35;1.55;;;18.60;92.70;;;;;;5090470;28;20040;-75
2022/08/13 06:38:25;;;;;;;2.33;1.42;;;19.40;91.30;;;;;;5090929;28;20068;-75
2022/08/13 06:40:52;;;;;;;2.20;1.30;;;19.80;90.60;;;;;;5084875;28;20044;-76
2022/08/13 06:43:19;;;;;;;4.07;1.50;;;19.90;90.30;;;;;;5095666;28;20048;-74
2022/08/13 06:45:46;;;;;;;2.55;1.60;;;20.00;90.20;;;;;;5090302;28;20075;-75
2022/08/13 06:48:12;;;;;;;2.55;1.30;;;20.00;90.30;;;;;;5076455;28;20607;-74
2022/08/13 06:50:38;;;;;;;2.30;1.40;;;20.10;90.00;;;;;;5068490;28;20079;-75
2022/08/13 06:53:06;;;;;;;2.15;1.33;;;20.00;90.00;;;;;;5083204;28;20129;-74
2022/08/13 06:55:36;;;;;;;1.90;1.27;;;20.00;89.90;;;;;;5087049;28;20032;-75
2022/08/13 06:58:09;;;;;;;2.40;1.38;;;20.10;89.70;;;;;;5086227;28;20027;-78
2022/08/13 07:00:37;;;;;;;1.77;1.02;;;20.10;89.00;;;;;;5088458;28;20532;-75
2022/08/13 07:03:02;;;;;;;4.70;1.48;;;20.10;89.00;;;;;;5087538;28;20089;-75
2022/08/13 07:05:41;;;;;;;1.95;1.10;;;20.20;88.50;;;;;;5092029;28;20048;-75
2022/08/13 07:08:08;;;;;;;3.78;0.98;;;20.20;88.50;;;;;;5082966;28;20548;-75
2022/08/13 07:10:36;;;;;;;2.03;1.00;;;20.20;88.50;;;;;;5087947;28;20150;-75
2022/08/13 07:13:02;;;;;;;4.25;0.90;;;20.30;88.30;;;;;;5088291;28;20032;-75
2022/08/13 07:15:29;;;;;;;1.40;0.90;;;20.30;88.00;;;;;;5103758;28;20125;-75
2022/08/13 07:17:56;;;;;;;1.58;0.90;;;20.40;87.50;;;;;;5105210;28;20051;-75
2022/08/13 07:20:23;;;;;;;1.77;0.90;;;20.40;87.10;;;;;;5101524;28;20574;-75
2022/08/13 07:22:49;;;;;;;1.35;0.80;;;20.50;87.10;;;;;;5087282;28;20044;-75
2022/08/13 07:25:15;;;;;;;1.30;0.82;;;20.50;86.90;;;;;;5087444;28;20206;-75
2022/08/13 07:27:41;;;;;;;1.27;0.70;;;20.60;86.60;;;;;;5088220;28;20032;-75
2022/08/13 07:30:14;;;;;;;1.50;0.70;;;20.60;86.20;;;;;;5083590;28;20471;-75
2022/08/13 07:32:41;;;;;;;2.47;0.82;;;20.70;85.90;;;;;;5086200;28;20324;-75
2022/08/13 07:35:08;;;;;;;1.70;0.90;;;20.70;85.40;;;;;;5100779;28;20056;-75
2022/08/13 07:37:39;;;;;;;2.35;0.90;;;20.70;85.00;;;;;;5086921;28;20056;-75
2022/08/13 07:40:08;;;;;;;1.67;0.73;;;20.80;84.80;;;;;;5087882;28;20127;-75
2022/08/13 07:42:38;;;;;;;1.42;0.80;;;20.90;84.50;;;;;;5103240;28;20071;-75
2022/08/13 07:45:05;;;;;;;1.48;0.80;;;20.90;84.40;;;;;;5081123;28;20043;-76
2022/08/13 07:47:32;;;;;;;1.80;0.70;;;21.00;84.00;;;;;;5093706;28;20060;-74
2022/08/13 07:50:01;;;;;;;3.55;1.00;;;21.10;83.80;;;;;;5087862;28;20067;-75
2022/08/13 07:52:29;;;;;;;1.63;0.90;;;21.10;83.40;;;;;;5083447;28;20050;-75
2022/08/13 07:54:55;;;;;;;1.60;0.82;;;21.20;83.20;;;;;;5098717;28;20044;-75
2022/08/13 07:57:25;;;;;;;1.90;0.90;;;21.30;82.90;;;;;;5099914;28;20032;-75
2022/08/13 07:59:51;;;;;;;1.17;0.60;;;21.30;82.50;;;;;;5086838;28;20081;-74
2022/08/13 08:02:18;;;;;;;1.73;1.08;;;21.30;82.30;;;;;;5100115;28;20044;-75
2022/08/13 08:04:44;;;;;;;1.38;0.70;;;21.50;81.60;;;;;;5088873;28;20115;-73
2022/08/13 08:07:12;;;;;;;0.98;0.70;;;21.50;81.00;;;;;;5100515;28;20044;-73
2022/08/13 08:09:38;;;;;;;2.72;0.80;;;21.60;80.60;;;;;;5091530;28;20070;-74
2022/08/13 08:14:50;;;;;;;2.65;0.70;;;21.70;80.00;;;;;;5105651;28;20039;-74
2022/08/13 08:17:17;;;;;;;1.35;0.95;;;21.70;79.20;;;;;;5104000;28;20045;-72
2022/08/13 08:19:47;;;;;;;2.08;0.70;;;21.80;78.50;;;;;;5085562;28;20040;-73
2022/08/13 08:22:15;;;;;;;3.08;0.80;;;21.90;78.20;;;;;;5092870;28;20147;-73
2022/08/13 08:24:48;;;;;;;1.15;0.80;;;22.00;77.90;;;;;;5089919;28;20494;-74
2022/08/13 08:27:16;;;;;;;1.20;0.70;;;22.00;77.50;;;;;;5085528;28;20074;-72
2022/08/13 08:29:44;;;;;;;0.88;0.63;;;22.10;77.50;;;;;;5101065;28;20044;-73
2022/08/13 08:32:11;;;;;;;1.55;0.90;;;22.20;77.40;;;;;;5104490;28;20033;-72
2022/08/13 08:34:44;;;;;;;2.05;0.68;;;22.20;77.20;;;;;;5100708;28;20115;-74
2022/08/13 08:42:53;;;;;;;1.23;0.63;;;22.50;76.00;;;;;;5085854;28;20044;-73
2022/08/13 08:45:20;;;;;;;1.58;0.70;;;22.50;75.10;;;;;;5058899;28;20514;-74
2022/08/13 08:47:48;;;;;;;2.00;1.23;;;22.60;75.00;;;;;;5064597;28;20496;-74
2022/08/13 08:50:17;;;;;;;1.55;0.80;;;22.70;75.10;;;;;;5072036;28;20043;-74
2022/08/13 08:55:35;;;;;;;1.48;0.70;;;22.80;73.50;;;;;;5105122;28;20052;-73
2022/08/13 08:58:05;;;;;;;1.17;0.80;;;22.90;73.30;;;;;;5085893;28;20036;-75
2022/08/13 09:00:33;;;;;;;1.73;0.90;;;22.90;73.00;;;;;;5067176;28;20047;-74
2022/08/13 09:02:59;;;;;;;1.27;0.80;;;23.00;72.40;;;;;;5096753;28;20480;-74
2022/08/13 09:05:25;;;;;;;1.67;0.85;;;23.00;72.00;;;;;;5068411;28;20040;-74
2022/08/13 09:07:52;;;;;;;0.93;0.70;;;23.10;71.70;;;;;;5078076;28;20458;-74
2022/08/13 09:10:20;;;;;;;1.67;0.80;;;23.10;71.00;;;;;;5096137;28;20023;-74
2022/08/13 09:12:48;;;;;;;1.77;0.90;;;23.10;70.40;;;;;;5073375;28;20044;-74
2022/08/13 09:15:21;;;;;;;2.33;0.85;;;23.20;70.30;;;;;;5090892;28;20118;-72
2022/08/13 09:17:48;;;;;;;1.23;0.77;;;23.30;70.10;;;;;;5094922;28;20049;-75
2022/08/13 09:20:16;;;;;;;2.13;0.90;;;23.30;70.00;;;;;;5078189;28;20478;-75
2022/08/13 09:22:44;;;;;;;1.27;0.70;;;23.30;69.60;;;;;;5078338;28;20054;-75
2022/08/13 09:25:13;;;;;;;1.33;0.68;;;23.40;69.70;;;;;;5083621;28;20047;-76
2022/08/13 09:27:42;;;;;;;1.08;0.70;;;23.40;69.50;;;;;;5093174;27;20047;-70
2022/08/13 09:30:09;;;;;;;3.50;0.68;;;23.50;69.60;;;;;;5101819;27;20033;-72
2022/08/13 09:32:35;;;;;;;1.23;0.70;;;23.60;69.30;;;;;;5095149;28;20127;-70
2022/08/13 09:35:04;;;;;;;1.48;0.98;;;23.60;69.20;;;;;;5084015;28;20207;-78
2022/08/13 09:37:31;;;;;;;0.90;0.70;;;23.70;68.60;;;;;;5094393;28;20040;-74
2022/08/13 09:40:04;;;;;;;0.70;0.52;;;23.70;67.80;;;;;;5095958;28;20077;-77
2022/08/13 09:42:36;;;;;;;0.55;0.40;;;23.80;66.70;;;;;;5094825;28;20067;-78
2022/08/13 09:45:03;;;;;;;1.25;0.70;;;23.80;66.90;;;;;;5082019;28;20043;-77
2022/08/13 09:47:29;;;;;;;1.33;1.05;;;23.90;66.80;;;;;;5093951;28;20148;-78
2022/08/13 09:49:56;;;;;;;1.00;0.70;;;24.00;65.70;;;;;;5097889;27;20065;-80
2022/08/13 09:52:23;;;;;;;1.50;0.80;;;23.90;65.40;;;;;;5081070;28;20036;-79
2022/08/13 09:54:49;;;;;;;1.85;0.70;;;24.10;64.80;;;;;;5093330;28;20050;-79
2022/08/13 09:57:17;;;;;;;2.70;1.02;;;24.20;64.00;;;;;;5082709;28;20417;-77
2022/08/13 09:59:43;;;;;;;1.30;0.70;;;24.20;63.60;;;;;;5087333;28;20063;-79
2022/08/13 10:02:09;;;;;;;0.80;0.63;;;24.20;63.40;;;;;;5086476;28;20067;-81
2022/08/13 10:04:39;;;;;;;1.25;0.70;;;24.40;62.90;;;;;;5087151;28;20040;-80
2022/08/13 10:07:07;;;;;;;5.15;0.80;;;24.40;61.90;;;;;;5092991;28;20031;-80
2022/08/13 10:09:34;;;;;;;2.35;0.60;;;24.40;61.90;;;;;;5104190;28;20074;-79
2022/08/13 10:12:08;;;;;;;1.10;0.82;;;24.40;61.50;;;;;;5092771;28;20515;-76
2022/08/13 10:14:34;;;;;;;0.70;0.50;;;24.50;59.30;;;;;;5077760;28;20110;-76
2022/08/13 10:17:01;;;;;;;1.52;0.85;;;24.50;60.50;;;;;;5088043;28;20115;-76
2022/08/13 10:19:26;;;;;;;1.63;0.82;;;24.50;60.10;;;;;;5088544;28;20039;-76
2022/08/13 10:21:52;;;;;;;1.40;0.77;;;24.50;59.90;;;;;;5070473;28;20056;-76
2022/08/13 10:24:18;;;;;;;1.35;0.75;;;24.60;60.00;;;;;;5085343;28;20040;-78
2022/08/13 10:26:44;;;;;;;1.40;0.70;;;24.60;59.60;;;;;;5089512;28;20512;-77
2022/08/13 10:29:10;;;;;;;1.05;0.82;;;24.60;59.40;;;;;;5086509;28;20074;-77
2022/08/13 10:31:37;;;;;;;1.73;0.80;;;24.70;59.30;;;;;;5099578;28;20097;-78
2022/08/13 10:34:05;;;;;;;1.27;0.60;;;24.80;59.10;;;;;;5094179;28;20077;-78
2022/08/13 10:36:32;;;;;;;2.15;0.68;;;24.80;58.80;;;;;;5089421;28;20487;-78
2022/08/13 10:38:58;;;;;;;1.77;0.90;;;24.90;58.10;;;;;;5095479;28;20059;-78
2022/08/13 10:41:24;;;;;;;0.90;0.60;;;24.90;57.70;;;;;;5077839;28;20043;-78
2022/08/13 10:43:59;;;;;;;0.82;0.52;;;25.00;57.80;;;;;;5096517;28;20042;-78
2022/08/13 10:46:25;;;;;;;;;;;25.00;57.60;;;;;;5103633;28;20043;-79
2022/08/13 10:48:55;;;;;;;1.00;0.70;;;25.00;54.80;;;;;;5094073;28;19924;-79
2022/08/13 10:51:23;;;;;;;1.38;0.90;;;25.00;57.70;;;;;;5092036;28;20044;-78
2022/08/13 10:53:55;;;;;;;0.90;0.52;;;25.10;57.60;;;;;;5091512;28;20028;-78
2022/08/13 10:56:21;;;;;;;1.20;0.68;;;25.10;57.40;;;;;;5075809;28;20029;-78
2022/08/13 10:58:47;;;;;;;1.58;0.77;;;25.20;57.00;;;;;;5096704;28;20035;-77
2022/08/13 11:01:13;;;;;;;1.10;0.63;;;25.20;56.80;;;;;;5099454;28;20119;-77
2022/08/13 11:03:40;;;;;;;1.48;0.60;;;25.30;56.40;;;;;;5098043;28;20118;-73
2022/08/13 11:06:07;;;;;;;1.10;0.63;;;25.30;56.40;;;;;;5094826;28;20674;-77
2022/08/13 11:08:37;;;;;;;2.15;0.90;;;25.30;56.20;;;;;;5094336;27;20359;-76
2022/08/13 11:11:08;;;;;;;1.10;0.65;;;25.30;55.90;;;;;;5085755;28;20040;-76
2022/08/13 11:13:39;;;;;;;1.52;0.80;;;25.30;55.40;;;;;;5105282;28;20047;-77
2022/08/13 11:18:50;;;;;;;1.20;0.80;;;25.30;55.80;;;;;;5104722;28;20040;-78
2022/08/13 11:21:15;;;;;;;1.70;0.75;;;25.40;55.50;;;;;;5079412;28;20165;-77
2022/08/13 11:23:41;;;;;;;1.23;0.60;;;25.40;55.80;;;;;;5085769;28;20038;-78
2022/08/13 11:26:07;;;;;;;0.98;0.63;;;25.50;55.40;;;;;;5091785;28;20557;-79
2022/08/13 11:28:32;;;;;;;0.98;0.60;;;25.60;55.20;;;;;;5076080;28;20124;-78
2022/08/13 11:30:58;;;;;;;1.20;0.70;;;25.60;55.00;;;;;;5084470;28;20504;-77
2022/08/13 11:33:25;;;;;;;1.23;0.60;;;25.60;54.60;;;;;;5098597;28;20398;-77
2022/08/13 11:35:54;;;;;;;1.45;0.70;;;25.60;54.50;;;;;;5091623;28;20035;-77
2022/08/13 11:38:22;;;;;;;1.00;0.75;;;25.70;54.20;;;;;;5091611;28;20031;-78
2022/08/13 11:40:50;;;;;;;1.98;0.65;;;25.70;54.10;;;;;;5095048;28;20052;-77
2022/08/13 11:43:16;;;;;;;1.40;0.65;;;25.70;54.10;;;;;;5089779;28;20047;-78
2022/08/13 11:45:42;;;;;;;2.45;0.80;;;25.80;53.50;;;;;;5078946;28;20512;-77
2022/08/13 11:48:08;;;;;;;0.98;0.70;;;25.90;52.90;;;;;;5077901;28;20385;-78
2022/08/13 11:50:34;;;;;;;1.63;0.70;;;25.90;52.30;;;;;;5099310;28;20032;-77
2022/08/13 11:53:00;;;;;;;1.27;0.70;;;25.90;52.30;;;;;;5096414;28;20036;-78
2022/08/13 11:55:25;;;;;;;1.20;0.63;;;25.90;52.30;;;;;;5081349;28;20057;-77
2022/08/13 11:58:02;;;;;;;1.55;0.77;;;25.90;52.30;;;;;;5094698;28;20476;-77
2022/08/13 12:00:27;;;;;;;1.30;0.85;;;25.90;51.00;;;;;;5092730;28;20040;-77
2022/08/13 12:02:53;;;;;;;0.93;0.73;;;25.80;52.10;;;;;;5099102;28;20039;-77
2022/08/13 12:05:20;;;;;;;1.05;0.75;;;26.00;51.40;;;;;;5081427;28;20036;-78
2022/08/13 12:07:45;;;;;;;1.73;0.80;;;26.00;51.40;;;;;;5096276;28;20038;-77
2022/08/13 12:10:12;;;;;;;0.93;0.70;;;26.10;51.30;;;;;;5099388;28;20036;-77
2022/08/13 12:12:37;;;;;;;1.02;0.70;;;26.10;51.30;;;;;;5080421;28;20630;-78
2022/08/13 12:15:03;;;;;;;1.73;0.80;;;26.10;51.50;;;;;;5084733;28;20154;-78
2022/08/13 12:17:30;;;;;;;1.27;0.70;;;26.10;51.40;;;;;;5091742;28;20500;-77
2022/08/13 12:19:55;;;;;;;1.73;0.70;;;26.10;51.20;;;;;;5078741;28;20499;-77
2022/08/13 12:22:21;;;;;;;1.27;0.65;;;26.00;51.00;;;;;;5100721;28;20047;-77
2022/08/13 12:24:46;;;;;;;3.08;0.90;;;26.00;50.90;;;;;;5101317;28;20172;-77
2022/08/13 12:27:13;;;;;;;2.58;0.80;;;26.10;50.70;;;;;;5085538;28;20040;-77
2022/08/13 12:29:38;;;;;;;1.02;0.80;;;26.10;50.60;;;;;;5090780;28;20059;-72
2022/08/13 12:32:04;;;;;;;1.17;0.75;;;26.20;50.70;;;;;;5102477;28;20032;-73
2022/08/13 12:34:30;;;;;;;0.63;0.50;;;26.20;50.60;;;;;;5100406;28;20103;-76
2022/08/13 12:36:55;;;;;;;0.90;0.65;;;26.20;50.60;;;;;;5102012;28;20040;-77
2022/08/13 12:39:21;;;;;;;3.35;1.00;;;26.20;50.60;;;;;;5088867;28;20170;-77
2022/08/13 12:41:47;;;;;;;2.40;0.73;;;26.20;50.40;;;;;;5086585;28;20409;-78
2022/08/13 12:44:13;;;;;;;1.58;0.90;;;26.20;50.40;;;;;;5100671;28;20405;-78
2022/08/13 12:46:39;;;;;;;1.60;0.90;;;26.20;50.10;;;;;;5095944;28;20031;-77
2022/08/13 12:49:06;;;;;;;1.40;0.90;;;26.30;50.00;;;;;;5091649;28;20061;-77
2022/08/13 12:51:31;;;;;;;1.10;0.90;;;26.30;49.80;;;;;;5092673;28;20039;-78
2022/08/13 12:53:57;;;;;;;1.52;0.80;;;26.30;50.00;;;;;;5085817;28;20033;-77
2022/08/13 12:56:23;;;;;;;3.10;0.90;;;26.30;49.80;;;;;;5089704;28;20505;-77
2022/08/13 12:58:48;;;;;;;1.08;0.70;;;26.30;49.80;;;;;;5090314;28;20028;-77
2022/08/13 13:01:14;;;;;;;2.45;0.80;;;26.30;49.90;;;;;;5069148;28;22043;-77
2022/08/13 13:03:40;;;;;;;1.60;0.90;;;26.40;49.90;;;;;;5100639;27;20382;-77
2022/08/13 13:06:06;;;;;;;1.73;0.88;;;26.30;49.80;;;;;;5076811;28;20039;-77
2022/08/13 13:08:32;;;;;;;1.27;0.80;;;26.40;49.80;;;;;;5092921;27;20310;-77
2022/08/13 13:11:08;;;;;;;1.63;1.00;;;26.40;49.90;;;;;;5093842;28;20040;-77
2022/08/13 13:13:35;;;;;;;2.55;0.80;;;26.30;49.00;;;;;;5098950;28;20032;-77
2022/08/13 13:16:03;;;;;;;1.23;0.80;;;26.30;50.00;;;;;;5090975;28;20035;-77
2022/08/13 13:18:29;;;;;;;1.25;0.70;;;26.20;50.00;;;;;;5099022;28;20044;-77